createdAt,value
2022-11-30T00:00:18.535Z,35.03
2022-11-30T00:02:52.513Z,35.20
2022-11-30T00:05:24.934Z,31.60
2022-11-30T00:07:55.560Z,33.67
2022-11-30T00:10:26.043Z,34.23
2022-11-30T00:12:56.628Z,36.03
2022-11-30T00:15:27.389Z,35.10
2022-11-30T00:17:58.893Z,33.00
2022-11-30T00:20:30.302Z,38.60
2022-11-30T00:23:00.784Z,36.68
2022-11-30T00:25:31.341Z,37.33
2022-11-30T00:28:02.728Z,36.70
2022-11-30T00:30:33.516Z,37.05
2022-11-30T00:33:04.203Z,36.95
2022-11-30T00:35:34.695Z,38.45
2022-11-30T00:38:05.229Z,37.95
2022-11-30T00:40:35.726Z,37.80
2022-11-30T00:43:06.514Z,37.20
2022-11-30T00:45:37.685Z,37.13
2022-11-30T00:48:08.322Z,39.73
2022-11-30T00:50:39.112Z,41.30
2022-11-30T00:53:09.676Z,39.85
2022-11-30T00:55:40.273Z,39.30
2022-11-30T00:58:11.707Z,39.50
2022-11-30T01:00:43.379Z,39.75
2022-11-30T01:03:14.779Z,38.98
2022-11-30T01:05:45.229Z,39.18
2022-11-30T01:08:16.050Z,39.73
2022-11-30T01:10:48.676Z,39.27
2022-11-30T01:13:19.354Z,37.38
2022-11-30T01:15:50.113Z,38.83
2022-11-30T01:18:20.563Z,37.35
2022-11-30T01:20:51.071Z,38.15
2022-11-30T01:23:21.773Z,39.55
2022-11-30T01:25:56.717Z,40.58
2022-11-30T01:28:27.233Z,37.73
2022-11-30T01:31:09.324Z,37.98
2022-11-30T01:33:40.716Z,36.20
2022-11-30T01:36:19.270Z,38.10
2022-11-30T01:38:52.108Z,36.95
2022-11-30T01:41:25.637Z,39.05
2022-11-30T01:43:59.385Z,39.27
2022-11-30T01:46:43.979Z,38.80
2022-11-30T01:49:20.187Z,38.85
2022-11-30T01:51:53.990Z,40.70
2022-11-30T01:54:27.411Z,38.75
2022-11-30T01:57:01.172Z,36.70
2022-11-30T01:59:32.401Z,38.23
2022-11-30T02:02:02.892Z,37.05
2022-11-30T02:04:36.659Z,37.67
2022-11-30T02:07:09.904Z,37.15
2022-11-30T02:09:43.624Z,37.45
2022-11-30T02:12:19.612Z,37.98
2022-11-30T02:14:53.165Z,37.80
2022-11-30T02:17:54.688Z,37.15
2022-11-30T02:20:31.167Z,37.42
2022-11-30T02:23:22.430Z,37.45
2022-11-30T02:26:25.065Z,38.23
2022-11-30T02:29:16.655Z,37.78
2022-11-30T02:31:50.119Z,37.67
2022-11-30T02:34:23.626Z,37.88
2022-11-30T02:36:56.573Z,37.23
2022-11-30T02:39:27.317Z,36.88
2022-11-30T02:41:57.953Z,36.08
2022-11-30T02:44:30.729Z,37.20
2022-11-30T02:47:19.571Z,37.70
2022-11-30T02:50:19.011Z,38.53
2022-11-30T02:52:51.195Z,39.40
2022-11-30T02:55:22.663Z,38.95
2022-11-30T02:57:53.445Z,37.48
2022-11-30T03:00:24.308Z,38.92
2022-11-30T03:02:56.251Z,39.55
2022-11-30T03:05:26.936Z,38.67
2022-11-30T03:07:57.827Z,40.52
2022-11-30T03:10:28.935Z,39.78
2022-11-30T03:13:01.293Z,40.67
2022-11-30T03:15:31.867Z,41.15
2022-11-30T03:18:06.433Z,40.10
2022-11-30T03:20:38.534Z,41.23
2022-11-30T03:23:09.111Z,39.23
2022-11-30T03:25:40.820Z,41.88
2022-11-30T03:28:12.427Z,39.85
2022-11-30T03:30:43.119Z,41.08
2022-11-30T03:33:14.210Z,38.40
2022-11-30T03:35:45.549Z,39.58
2022-11-30T03:38:16.114Z,39.78
2022-11-30T03:40:46.557Z,39.27
2022-11-30T03:43:20.976Z,39.00
2022-11-30T03:45:52.852Z,40.65
2022-11-30T03:48:24.968Z,41.13
2022-11-30T03:50:55.472Z,39.65
2022-11-30T03:53:27.010Z,39.35
2022-11-30T03:55:59.994Z,40.10
2022-11-30T03:58:31.302Z,39.98
2022-11-30T04:01:07.310Z,40.38
2022-11-30T04:03:39.182Z,38.38
2022-11-30T04:06:11.662Z,41.77
2022-11-30T04:08:42.469Z,42.55
2022-11-30T04:11:13.250Z,43.35
2022-11-30T04:13:44.612Z,40.38
2022-11-30T04:16:15.262Z,36.68
2022-11-30T04:18:47.761Z,36.80
2022-11-30T04:21:19.158Z,37.30
2022-11-30T04:23:49.726Z,39.85
2022-11-30T04:26:20.313Z,39.88
2022-11-30T04:28:51.183Z,39.23
2022-11-30T04:31:22.492Z,39.23
2022-11-30T04:33:56.003Z,36.35
2022-11-30T04:36:26.534Z,34.48
2022-11-30T04:38:57.372Z,36.38
2022-11-30T04:41:28.298Z,35.98
2022-11-30T04:43:58.979Z,41.08
2022-11-30T04:46:29.788Z,38.17
2022-11-30T04:49:00.422Z,37.03
2022-11-30T04:51:30.760Z,37.45
2022-11-30T04:54:01.222Z,38.50
2022-11-30T04:56:32.207Z,37.78
2022-11-30T04:59:05.689Z,36.53
2022-11-30T05:01:36.246Z,34.75
2022-11-30T05:04:06.921Z,35.25
2022-11-30T05:06:37.602Z,39.40
2022-11-30T05:09:08.676Z,36.55
2022-11-30T05:11:39.312Z,35.33
2022-11-30T05:14:09.957Z,33.28
2022-11-30T05:16:40.478Z,34.30
2022-11-30T05:19:10.966Z,36.58
2022-11-30T05:21:45.589Z,35.20
2022-11-30T05:24:14.720Z,35.25
2022-11-30T05:26:46.418Z,36.28
2022-11-30T05:29:16.991Z,36.80
2022-11-30T05:31:48.866Z,40.05
2022-11-30T05:34:19.667Z,42.38
2022-11-30T05:36:51.552Z,37.73
2022-11-30T05:39:22.038Z,37.00
2022-11-30T05:41:53.704Z,36.20
2022-11-30T05:44:24.174Z,36.05
2022-11-30T05:46:54.690Z,34.18
2022-11-30T05:49:25.487Z,35.00
2022-11-30T05:51:57.042Z,32.08
2022-11-30T05:54:27.554Z,31.10
2022-11-30T05:56:58.048Z,30.92
2022-11-30T05:59:28.750Z,31.05
2022-11-30T06:01:59.545Z,31.75
2022-11-30T06:04:30.465Z,33.35
2022-11-30T06:07:00.950Z,35.73
2022-11-30T06:09:31.564Z,36.25
2022-11-30T06:12:01.915Z,37.45
2022-11-30T06:14:32.634Z,35.10
2022-11-30T06:17:03.372Z,36.53
2022-11-30T06:19:33.945Z,38.70
2022-11-30T06:22:04.413Z,36.33
2022-11-30T06:24:34.921Z,37.15
2022-11-30T06:27:05.421Z,34.48
2022-11-30T06:29:36.395Z,38.50
2022-11-30T06:32:09.053Z,37.85
2022-11-30T06:34:39.560Z,36.50
2022-11-30T06:37:10.107Z,32.80
2022-11-30T06:40:05.367Z,32.45
2022-11-30T06:42:13.098Z,35.80
2022-11-30T06:44:44.266Z,36.93
2022-11-30T06:47:15.015Z,35.58
2022-11-30T06:49:45.469Z,32.13
2022-11-30T06:52:15.883Z,33.63
2022-11-30T06:54:47.003Z,32.93
2022-11-30T06:57:18.562Z,32.88
2022-11-30T06:59:49.076Z,34.03
2022-11-30T07:02:19.578Z,37.50
2022-11-30T07:04:50.564Z,37.17
2022-11-30T07:07:21.402Z,35.68
2022-11-30T07:09:52.373Z,35.73
2022-11-30T07:12:23.614Z,31.45
2022-11-30T07:14:58.012Z,30.95
2022-11-30T07:17:28.840Z,30.10
2022-11-30T07:19:59.429Z,30.20
2022-11-30T07:22:29.976Z,29.77
2022-11-30T07:25:18.779Z,31.95
2022-11-30T07:27:49.473Z,35.80
2022-11-30T07:30:20.240Z,32.50
2022-11-30T07:32:50.652Z,29.77
2022-11-30T07:35:21.193Z,32.15
2022-11-30T07:37:51.829Z,29.80
2022-11-30T07:40:22.677Z,29.67
2022-11-30T07:42:56.403Z,29.15
2022-11-30T07:45:26.853Z,28.32
2022-11-30T07:47:58.803Z,30.08
2022-11-30T07:50:29.406Z,30.45
2022-11-30T07:53:00.287Z,28.42
2022-11-30T07:55:30.768Z,30.48
2022-11-30T07:58:01.192Z,30.82
2022-11-30T08:00:32.077Z,33.05
2022-11-30T08:03:02.626Z,29.05
2022-11-30T08:05:33.500Z,30.62
2022-11-30T08:08:03.992Z,29.40
2022-11-30T08:10:35.214Z,32.67
2022-11-30T08:13:05.734Z,31.17
2022-11-30T08:15:36.519Z,29.82
2022-11-30T08:18:08.564Z,31.20
2022-11-30T08:20:41.054Z,30.32
2022-11-30T08:23:12.680Z,31.52
2022-11-30T08:25:43.081Z,32.08
2022-11-30T08:28:13.507Z,32.28
2022-11-30T08:30:44.085Z,36.10
2022-11-30T08:33:18.607Z,33.67
2022-11-30T08:35:49.780Z,33.40
2022-11-30T08:38:21.456Z,33.02
2022-11-30T08:40:52.326Z,31.57
2022-11-30T08:43:24.260Z,31.65
2022-11-30T08:45:57.457Z,31.10
2022-11-30T08:48:27.074Z,33.48
2022-11-30T08:51:06.153Z,33.40
2022-11-30T08:53:36.666Z,37.10
2022-11-30T08:56:09.736Z,36.03
2022-11-30T08:58:41.528Z,36.17
2022-11-30T09:01:17.357Z,35.33
2022-11-30T09:03:49.750Z,34.15
2022-11-30T09:06:25.440Z,33.70
2022-11-30T09:08:57.948Z,33.00
2022-11-30T09:11:33.772Z,33.13
2022-11-30T09:14:05.548Z,33.48
2022-11-30T09:16:36.229Z,32.75
2022-11-30T09:19:06.788Z,33.45
2022-11-30T09:21:37.326Z,32.67
2022-11-30T09:24:09.469Z,34.45
2022-11-30T09:26:39.939Z,33.50
2022-11-30T09:29:10.443Z,34.55
2022-11-30T09:31:41.051Z,33.13
2022-11-30T09:34:12.955Z,33.50
2022-11-30T09:36:44.041Z,35.55
2022-11-30T09:39:14.669Z,39.03
2022-11-30T09:42:03.278Z,37.63
2022-11-30T09:44:36.703Z,34.25
2022-11-30T09:47:31.882Z,36.80
2022-11-30T09:50:06.596Z,37.90
2022-11-30T09:52:40.025Z,39.88
2022-11-30T09:55:13.523Z,37.85
2022-11-30T09:58:05.135Z,37.25
2022-11-30T10:00:37.178Z,36.17
2022-11-30T10:03:08.075Z,38.35
2022-11-30T10:05:50.870Z,39.35
2022-11-30T10:08:50.195Z,38.05
2022-11-30T10:11:25.283Z,34.92
2022-11-30T10:14:08.607Z,37.25
2022-11-30T10:17:02.444Z,38.70
2022-11-30T10:19:56.548Z,35.95
2022-11-30T10:22:52.446Z,33.33
2022-11-30T10:25:47.896Z,31.87
2022-11-30T10:30:53.218Z,32.50
2022-11-30T10:33:26.733Z,30.37
2022-11-30T10:36:00.155Z,29.80
2022-11-30T10:38:42.751Z,30.25
2022-11-30T10:41:31.276Z,28.92
2022-11-30T10:44:10.337Z,29.37
2022-11-30T10:46:44.149Z,28.35
2022-11-30T10:49:18.068Z,29.18
2022-11-30T10:51:51.618Z,28.67
2022-11-30T10:54:23.942Z,29.40
2022-11-30T10:56:54.578Z,28.67
2022-11-30T10:59:40.243Z,29.12
2022-11-30T11:04:43.259Z,29.60
2022-11-30T11:07:15.456Z,27.55
2022-11-30T11:09:49.264Z,29.27
2022-11-30T11:12:30.410Z,31.10
2022-11-30T11:15:27.144Z,29.85
2022-11-30T11:20:42.405Z,28.73
2022-11-30T11:23:42.895Z,27.10
2022-11-30T11:26:25.497Z,27.87
2022-11-30T11:28:59.736Z,27.02
2022-11-30T11:31:42.948Z,28.60
2022-11-30T11:34:35.483Z,28.67
2022-11-30T11:37:17.946Z,28.95
2022-11-30T11:40:18.221Z,31.10
2022-11-30T11:42:51.641Z,32.28
2022-11-30T11:45:27.383Z,32.75
2022-11-30T11:48:03.603Z,31.40
2022-11-30T11:55:42.657Z,31.52
2022-11-30T11:58:19.972Z,32.53
2022-11-30T12:00:51.218Z,28.95
2022-11-30T12:03:24.579Z,28.02
2022-11-30T12:06:04.300Z,35.58
2022-11-30T12:08:55.844Z,32.03
2022-11-30T12:11:46.161Z,54.27
2022-11-30T12:14:19.635Z,55.73
2022-11-30T12:17:09.765Z,40.88
2022-11-30T12:20:16.796Z,38.33
2022-11-30T12:23:19.876Z,40.05
2022-11-30T12:26:02.080Z,41.33
2022-11-30T12:29:03.758Z,33.92
2022-11-30T12:31:53.449Z,28.95
2022-11-30T12:34:44.621Z,28.55
2022-11-30T12:37:20.828Z,27.95
2022-11-30T12:39:56.906Z,33.60
2022-11-30T12:42:45.043Z,35.60
2022-11-30T12:45:27.568Z,33.60
2022-11-30T12:48:25.202Z,34.18
2022-11-30T12:51:29.508Z,32.85
2022-11-30T12:54:17.383Z,31.00
2022-11-30T12:56:50.782Z,31.05
2022-11-30T12:59:28.244Z,29.90
2022-11-30T13:02:33.736Z,32.05
2022-11-30T13:05:07.199Z,29.45
2022-11-30T13:07:46.464Z,30.97
2022-11-30T13:10:31.715Z,34.08
2022-11-30T13:13:04.654Z,32.17
2022-11-30T13:15:36.963Z,31.48
2022-11-30T13:18:10.075Z,32.33
2022-11-30T13:20:49.796Z,28.00
2022-11-30T13:23:45.072Z,28.35
2022-11-30T13:26:21.270Z,30.70
2022-11-30T13:29:04.319Z,30.50
2022-11-30T13:31:41.526Z,30.00
2022-11-30T13:34:29.743Z,30.35
2022-11-30T13:37:11.748Z,32.23
2022-11-30T13:39:56.706Z,31.95
2022-11-30T13:42:51.253Z,33.10
2022-11-30T13:45:20.178Z,38.75
2022-11-30T13:47:58.335Z,36.28
2022-11-30T13:50:37.953Z,32.50
2022-11-30T13:53:11.676Z,34.92
2022-11-30T13:55:46.293Z,36.42
2022-11-30T13:58:19.477Z,37.13
2022-11-30T14:01:17.001Z,38.65
2022-11-30T14:03:56.029Z,37.42
2022-11-30T14:06:44.319Z,36.45
2022-11-30T14:09:16.383Z,40.83
2022-11-30T14:11:47.190Z,39.03
2022-11-30T14:14:46.736Z,39.25
2022-11-30T14:17:23.175Z,39.30
2022-11-30T14:20:02.273Z,39.10
2022-11-30T14:22:33.304Z,40.58
2022-11-30T14:25:04.738Z,40.55
2022-11-30T14:27:37.157Z,40.15
2022-11-30T14:30:09.823Z,42.93
2022-11-30T14:32:43.735Z,42.10
2022-11-30T14:35:17.110Z,43.25
2022-11-30T14:37:55.746Z,42.20
2022-11-30T14:40:30.378Z,42.48
2022-11-30T14:43:04.313Z,43.60
2022-11-30T14:45:36.736Z,41.95
2022-11-30T14:48:15.273Z,37.93
2022-11-30T14:50:51.593Z,33.73
2022-11-30T14:53:30.987Z,33.85
2022-11-30T14:56:16.341Z,35.08
2022-11-30T14:58:58.542Z,42.00
2022-11-30T15:01:32.039Z,38.23
2022-11-30T15:04:09.295Z,37.83
2022-11-30T15:06:41.791Z,35.65
2022-11-30T15:09:22.330Z,42.20
2022-11-30T15:11:55.021Z,42.90
2022-11-30T15:14:25.947Z,45.65
2022-11-30T15:16:58.411Z,46.70
2022-11-30T15:19:34.794Z,41.48
2022-11-30T15:22:05.889Z,39.58
2022-11-30T15:24:36.454Z,38.85
2022-11-30T15:27:11.194Z,41.58
2022-11-30T15:29:45.142Z,40.92
2022-11-30T15:32:22.011Z,41.55
2022-11-30T15:34:57.051Z,43.80
2022-11-30T15:40:04.205Z,42.93
2022-11-30T15:42:39.239Z,44.25
2022-11-30T15:45:24.560Z,40.75
2022-11-30T15:47:56.627Z,41.58
2022-11-30T15:50:33.018Z,43.85
2022-11-30T15:53:22.965Z,42.60
2022-11-30T15:56:03.002Z,41.88
2022-11-30T15:58:48.364Z,42.43
2022-11-30T16:01:24.474Z,43.05
2022-11-30T16:04:00.520Z,43.55
2022-11-30T16:06:36.839Z,43.10
2022-11-30T16:09:22.254Z,41.13
2022-11-30T16:11:57.338Z,43.28
2022-11-30T16:14:27.915Z,40.33
2022-11-30T16:17:02.893Z,40.70
2022-11-30T16:19:31.563Z,39.95
2022-11-30T16:22:02.037Z,39.35
2022-11-30T16:24:32.549Z,39.45
2022-11-30T16:27:06.036Z,39.15
2022-11-30T16:29:36.562Z,39.35
2022-11-30T16:32:07.002Z,39.45
2022-11-30T16:34:37.576Z,37.60
2022-11-30T16:37:09.474Z,36.05
2022-11-30T16:39:39.931Z,37.23
2022-11-30T16:42:12.828Z,37.20
2022-11-30T16:44:44.531Z,40.25
2022-11-30T16:47:15.065Z,36.75
2022-11-30T16:49:46.015Z,39.98
2022-11-30T16:52:19.007Z,38.90
2022-11-30T16:54:49.390Z,38.25
2022-11-30T16:57:21.090Z,42.73
2022-11-30T16:59:51.616Z,35.08
2022-11-30T17:02:24.847Z,34.60
2022-11-30T17:04:55.507Z,36.17
2022-11-30T17:07:27.193Z,34.92
2022-11-30T17:09:57.721Z,33.73
2022-11-30T17:12:29.219Z,33.02
2022-11-30T17:15:00.890Z,32.63
2022-11-30T17:17:31.764Z,35.52
2022-11-30T17:20:02.303Z,32.17
2022-11-30T17:22:34.026Z,31.62
2022-11-30T17:25:06.217Z,32.10
2022-11-30T17:27:37.051Z,32.08
2022-11-30T17:30:08.691Z,30.97
2022-11-30T17:32:39.144Z,31.12
2022-11-30T17:35:13.322Z,31.23
2022-11-30T17:37:47.489Z,28.38
2022-11-30T17:40:20.013Z,29.57
2022-11-30T17:42:54.998Z,29.32
2022-11-30T17:45:30.352Z,30.17
2022-11-30T17:48:03.112Z,30.80
2022-11-30T17:50:35.160Z,29.57
2022-11-30T17:53:08.284Z,28.90
2022-11-30T17:55:41.021Z,30.05
2022-11-30T17:58:13.439Z,31.27
2022-11-30T18:00:47.039Z,29.90
2022-11-30T18:03:20.084Z,30.72
2022-11-30T18:05:53.077Z,30.02
2022-11-30T18:08:25.907Z,30.12
2022-11-30T18:10:58.073Z,31.12
2022-11-30T18:13:34.990Z,30.92
2022-11-30T18:16:15.770Z,29.25
2022-11-30T18:18:49.161Z,29.02
2022-11-30T18:21:25.012Z,29.75
2022-11-30T18:23:56.953Z,29.95
2022-11-30T18:26:32.577Z,29.50
2022-11-30T18:29:05.070Z,29.42
2022-11-30T18:31:38.568Z,27.80
2022-11-30T18:34:13.498Z,28.87
2022-11-30T18:36:47.141Z,32.20
2022-11-30T18:39:23.728Z,31.97
2022-11-30T18:41:56.045Z,31.48
2022-11-30T18:44:29.541Z,31.35
2022-11-30T18:47:04.099Z,29.98
2022-11-30T18:49:36.437Z,30.62
2022-11-30T18:52:09.283Z,28.95
2022-11-30T18:54:43.040Z,28.63
2022-11-30T18:57:26.509Z,28.65
2022-11-30T18:59:58.944Z,27.58
2022-11-30T19:02:32.578Z,28.90
2022-11-30T19:05:11.907Z,29.27
2022-11-30T19:10:17.162Z,27.93
2022-11-30T19:12:54.564Z,27.62
2022-11-30T19:15:30.940Z,27.75
2022-11-30T19:18:05.031Z,28.50
2022-11-30T19:20:43.635Z,28.50
2022-11-30T19:23:16.465Z,27.55
2022-11-30T19:25:49.763Z,27.37
2022-11-30T19:28:22.289Z,28.07
2022-11-30T19:30:57.517Z,27.52
2022-11-30T19:33:31.542Z,28.12
2022-11-30T19:36:05.641Z,27.40
2022-11-30T19:38:39.748Z,27.63
2022-11-30T19:41:14.907Z,28.62
2022-11-30T19:43:54.793Z,28.30
2022-11-30T19:46:24.381Z,27.87
2022-11-30T19:49:02.089Z,28.90
2022-11-30T19:51:35.876Z,28.10
2022-11-30T19:54:06.368Z,29.60
2022-11-30T19:56:39.220Z,28.47
2022-11-30T19:59:09.878Z,29.67
2022-11-30T20:01:40.885Z,30.05
2022-11-30T20:04:11.404Z,27.95
2022-11-30T20:06:41.966Z,28.98
2022-11-30T20:09:13.791Z,29.75
2022-11-30T20:11:44.449Z,29.87
2022-11-30T20:14:18.503Z,29.87
2022-11-30T20:16:48.949Z,28.02
2022-11-30T20:19:19.662Z,28.47
2022-11-30T20:21:50.168Z,28.20
2022-11-30T20:24:20.644Z,29.12
2022-11-30T20:26:51.109Z,30.37
2022-11-30T20:29:21.642Z,29.12
2022-11-30T20:31:52.315Z,29.37
2022-11-30T20:34:23.181Z,26.52
2022-11-30T20:36:54.137Z,28.15
2022-11-30T20:39:24.644Z,29.80
2022-11-30T20:41:56.286Z,29.05
2022-11-30T20:44:26.799Z,30.45
2022-11-30T20:46:57.261Z,29.48
2022-11-30T20:49:27.755Z,28.02
2022-11-30T20:51:58.334Z,29.15
2022-11-30T20:54:30.506Z,28.85
2022-11-30T20:57:01.447Z,28.80
2022-11-30T20:59:33.334Z,30.10
2022-11-30T21:02:07.819Z,30.23
2022-11-30T21:04:38.260Z,30.35
2022-11-30T21:07:08.719Z,30.32
2022-11-30T21:09:40.560Z,31.40
2022-11-30T21:12:11.064Z,31.68
2022-11-30T21:14:41.543Z,33.18
2022-11-30T21:17:11.945Z,32.93
2022-11-30T21:19:42.738Z,33.13
2022-11-30T21:22:14.421Z,34.20
2022-11-30T21:24:45.051Z,35.28
2022-11-30T21:27:17.246Z,35.90
2022-11-30T21:29:47.710Z,35.23
2022-11-30T21:32:18.554Z,36.85
2022-11-30T21:34:49.305Z,38.15
2022-11-30T21:37:21.316Z,37.08
2022-11-30T21:39:52.031Z,38.53
2022-11-30T21:42:22.833Z,42.17
2022-11-30T21:44:54.837Z,44.25
2022-11-30T21:47:26.501Z,42.48
2022-11-30T21:49:56.983Z,40.23
2022-11-30T21:52:29.258Z,39.25
2022-11-30T21:55:00.072Z,41.02
2022-11-30T21:57:30.530Z,42.80
2022-11-30T22:00:02.211Z,41.65
2022-11-30T22:02:33.704Z,41.45
2022-11-30T22:05:04.399Z,37.60
2022-11-30T22:07:35.057Z,38.10
2022-11-30T22:10:06.285Z,34.50
2022-11-30T22:12:36.994Z,29.15
2022-11-30T22:15:07.814Z,28.95
2022-11-30T22:17:38.279Z,28.00
2022-11-30T22:20:09.432Z,26.52
2022-11-30T22:22:40.107Z,29.72
2022-11-30T22:25:11.009Z,27.60
2022-11-30T22:27:41.551Z,28.25
2022-11-30T22:30:12.848Z,28.02
2022-11-30T22:32:43.715Z,26.73
2022-11-30T22:35:15.044Z,26.55
2022-11-30T22:37:47.290Z,27.58
2022-11-30T22:40:18.197Z,26.48
2022-11-30T22:42:48.691Z,27.67
2022-11-30T22:45:19.170Z,27.65
2022-11-30T22:47:49.776Z,25.50
2022-11-30T22:50:21.169Z,26.62
2022-11-30T22:53:02.811Z,27.42
2022-11-30T22:55:24.326Z,26.55
2022-11-30T22:57:55.142Z,25.72
2022-11-30T23:00:25.657Z,26.65
2022-11-30T23:02:56.177Z,26.27
2022-11-30T23:05:26.674Z,27.15
2022-11-30T23:07:57.037Z,26.52
2022-11-30T23:10:28.596Z,25.75
2022-11-30T23:13:00.204Z,26.45
2022-11-30T23:15:30.980Z,26.68
2022-11-30T23:18:02.702Z,24.87
2022-11-30T23:20:34.720Z,26.17
2022-11-30T23:23:06.241Z,24.45
2022-11-30T23:25:36.571Z,25.55
2022-11-30T23:28:07.191Z,25.60
2022-11-30T23:30:38.447Z,25.65
2022-11-30T23:33:08.791Z,26.02
2022-11-30T23:35:44.951Z,25.85
2022-11-30T23:38:15.558Z,25.45
2022-11-30T23:40:46.863Z,26.37
2022-11-30T23:43:18.380Z,25.95
2022-11-30T23:45:48.670Z,24.70
2022-11-30T23:48:18.991Z,26.00
2022-11-30T23:50:49.313Z,26.45
2022-11-30T23:53:20.215Z,27.50
2022-11-30T23:55:51.074Z,23.32
2022-11-30T23:58:23.110Z,23.57
